ADDS METAR Data INFO
IDs: Format: Raw Decoded Include TAF

Data at: 2112 UTC 22 Oct 2017

KAVL 222054Z 13006KT 10SM BKN045 21/12 A3027 RMK AO2 SLP238 T02060122 58013
KAVL 221954Z AUTO 16007KT 10SM CLR 21/13 A3029 RMK AO2 SLP244 T02110133
KAVL 221854Z 15007KT 10SM BKN046 20/13 A3030 RMK AO2 SLP248 T02000133
KAVL 221754Z 15008KT 10SM FEW041 BKN048 21/14 A3031 RMK AO2 SLP250 T02110139 10211 20067 58018
KAVL 221654Z 16011G15KT 10SM FEW025 BKN046 20/13 A3035 RMK AO2 SLP263 T02000133
KAVL 221554Z 17009KT 10SM OVC043 18/13 A3037 RMK AO2 SLP271 T01830133
KAVL 221454Z 17004KT 10SM BKN043 14/11 A3037 RMK AO2 SLP273 T01440111 50002
KAVL 221354Z 16003KT 10SM CLR 12/09 A3039 RMK AO2 SLP282 T01170094
KAVL 221254Z 00000KT 10SM CLR 09/08 A3039 RMK AO2 SLP280 T00940083
KAVL 221154Z 00000KT 10SM CLR 07/06 A3036 RMK AO2 SLP273 T00720061 10100 20067 53004
KAVL 221054Z 00000KT 10SM CLR 08/07 A3035 RMK AO2 SLP267 T00830072
KAVL 221019Z 00000KT 10SM FEW002 08/07 A3035 RMK AO2 T00780067
KAVL 220954Z AUTO 00000KT 10SM CLR 07/07 A3035 RMK AO2 SLP265 T00720067
KAVL 220854Z AUTO 00000KT 10SM CLR 08/07 A3035 RMK AO2 SLP264 T00830072 58003
KAVL 220754Z AUTO 00000KT 10SM CLR 09/08 A3035 RMK AO2 SLP264 T00890078
KAVL 220654Z AUTO 00000KT 10SM CLR 09/08 A3036 RMK AO2 SLP266 T00890083
KAVL 220554Z AUTO 00000KT 10SM CLR 10/09 A3036 RMK AO2 SLP265 T01000089 10161 20094 58003
KAVL 220454Z AUTO 00000KT 10SM CLR 11/09 A3037 RMK AO2 SLP267 T01110094 402390056
KAVL 220354Z AUTO 00000KT 10SM CLR 11/10 A3037 RMK AO2 SLP273 T01110100
KAVL 220254Z AUTO 00000KT 10SM CLR 12/10 A3037 RMK AO2 SLP273 T01220100 50002
KAVL 220154Z 00000KT 10SM CLR 14/11 A3037 RMK AO2 SLP276 T01390106
KAVL 220054Z 00000KT 10SM CLR 14/11 A3036 RMK AO2 SLP275 T01440106
KAVL 212354Z 00000KT 10SM CLR 16/11 A3036 RMK AO2 RAB04E09 SLP274 P0000 60000 T01610111 10239 20161 51010
KAVL 212254Z 00000KT 10SM CLR 18/10 A3036 RMK AO2 SLP270 T01830100
KAVL 212154Z 13005KT 10SM CLR 21/09 A3034 RMK AO2 SLP265 T02060094
KAVL 212054Z 15006KT 10SM CLR 22/09 A3033 RMK AO2 SLP258 T02170089 55003
KAVL 211954Z AUTO 14007KT 110V170 10SM CLR 22/08 A3032 RMK AO2 SLP255 T02220083
KAVL 211854Z VRB03KT 10SM CLR 23/08 A3032 RMK AO2 SLP254 T02280083
KAVL 211754Z 15007KT 10SM CLR 22/08 A3034 RMK AO2 SLP260 T02220078 10222 20056 58017
KAVL 211654Z 13004KT 10SM CLR 22/09 A3036 RMK AO2 SLP268 T02170089
KAVL 211554Z 19003KT 10SM CLR 17/09 A3038 RMK AO2 SLP276 T01720089
KAVL 211454Z 00000KT 10SM CLR 14/09 A3039 RMK AO2 SLP281 T01390094 50011
KAVL 211354Z 00000KT 10SM CLR 11/08 A3039 RMK AO2 SLP283 T01060083
KAVL 211254Z 00000KT 10SM CLR 08/07 A3038 RMK AO2 SLP280 T00780067
KAVL 211154Z 00000KT 10SM CLR 06/04 A3035 RMK AO2 SLP272 T00560044 10083 20056 51014
KAVL 211054Z 00000KT 10SM CLR 06/04 A3034 RMK AO2 SLP264 T00560044
KAVL 210954Z AUTO 00000KT 10SM CLR 06/05 A3033 RMK AO2 SLP257 T00610050